Terminal Aerodrome Forecast
Issued by NWS Wilmington, OH

Home | Current Version | Previous Version | Text Only | Print | Product List | Glossary On
Versions: 1 2 3 4 5 6 7 8 9 10 11 12 13 14 15 16 17
000
FTUS41 KILN 211700
TAFDAY
TAF
KDAY 211736Z 2118/2218 13007KT P6SM SCT250
     FM221200 14009KT P6SM BKN025
      TEMPO 2213/2217 SCT025 BKN200=

USA.gov is the U.S. government's official web portal to all federal, state and local government web resources and services.